Time;durP1;ratioP1;P1;durP2;ratioP2;P2;SDS_P1;SDS_P2;PMS_P1;PMS_P2;Temp;Humidity;BMP_temperature;BMP_pressure;BME280_temperature;BME280_humidity;BME280_pressure;Samples;Min_cycle;Max_cycle;Signal;HPM_P1;HPM_P2
2022/09/13 00:00:58;;;;;;;8.02;3.65;;;34.30;84.80;;;;;;5064761;28;20375;-68
2022/09/13 00:03:25;;;;;;;4.65;2.70;;;34.40;83.20;;;;;;5068219;28;20380;-66
2022/09/13 00:05:52;;;;;;;3.92;2.17;;;34.40;82.90;;;;;;5067598;28;20070;-66
2022/09/13 00:08:19;;;;;;;7.57;2.78;;;34.40;85.20;;;;;;5062231;28;20038;-65
2022/09/13 00:10:46;;;;;;;5.38;3.67;;;34.40;83.60;;;;;;5068497;28;20269;-65
2022/09/13 00:13:14;;;;;;;4.63;2.58;;;34.40;83.70;;;;;;5068475;28;20147;-66
2022/09/13 00:15:48;;;;;;;6.57;2.97;;;34.30;83.50;;;;;;5061732;28;20063;-67
2022/09/13 00:18:16;;;;;;;9.75;2.83;;;34.20;83.80;;;;;;5067918;28;20053;-67
2022/09/13 00:20:43;;;;;;;4.00;2.70;;;34.10;84.40;;;;;;5066264;28;20459;-66
2022/09/13 00:23:09;;;;;;;5.28;2.70;;;34.00;84.80;;;;;;5066370;28;20083;-67
2022/09/13 00:25:36;;;;;;;8.13;3.00;;;34.00;85.10;;;;;;5069004;28;20093;-65
2022/09/13 00:28:03;;;;;;;11.40;2.10;;;34.00;84.40;;;;;;5069139;28;20045;-66
2022/09/13 00:30:30;;;;;;;3.88;1.83;;;34.00;84.50;;;;;;5066604;28;20052;-67
2022/09/13 00:32:57;;;;;;;50.88;5.95;;;34.00;84.80;;;;;;5067570;28;20897;-68
2022/09/13 00:35:23;;;;;;;15.90;2.85;;;33.90;84.00;;;;;;5068950;28;20086;-66
2022/09/13 00:37:50;;;;;;;7.85;2.85;;;33.80;85.30;;;;;;5056116;28;20617;-68
2022/09/13 00:40:16;;;;;;;23.60;4.72;;;33.80;87.00;;;;;;5062169;28;20060;-66
2022/09/13 00:42:43;;;;;;;8.15;3.08;;;33.70;87.00;;;;;;5063400;28;20385;-67
2022/09/13 00:45:16;;;;;;;9.05;3.30;;;33.60;87.20;;;;;;5063189;28;20076;-66
2022/09/13 00:47:55;;;;;;;7.18;3.38;;;33.60;87.30;;;;;;5067002;28;20185;-69
2022/09/13 00:50:34;;;;;;;6.53;2.67;;;33.40;87.10;;;;;;5064958;28;20038;-65
2022/09/13 00:53:17;;;;;;;6.93;3.40;;;33.30;87.90;;;;;;5066499;28;20045;-66
2022/09/13 00:55:50;;;;;;;7.03;2.53;;;33.30;87.50;;;;;;5065082;28;20044;-65
2022/09/13 00:58:23;;;;;;;4.00;2.05;;;33.30;88.40;;;;;;5063066;28;20048;-68
2022/09/13 01:00:50;;;;;;;4.50;2.33;;;33.30;88.70;;;;;;5066407;28;20150;-67
2022/09/13 01:03:21;;;;;;;6.25;2.63;;;33.20;87.80;;;;;;5068352;28;20045;-65
2022/09/13 01:05:52;;;;;;;8.13;2.50;;;33.10;87.50;;;;;;5069421;28;20047;-67
2022/09/13 01:08:21;;;;;;;6.28;2.00;;;33.00;88.10;;;;;;5067211;28;20391;-65
2022/09/13 01:10:51;;;;;;;37.75;5.00;;;33.00;88.60;;;;;;5066523;28;20079;-68
2022/09/13 01:13:27;;;;;;;16.42;3.33;;;32.90;88.30;;;;;;5044929;28;20035;-66
2022/09/13 01:15:53;;;;;;;4.47;2.70;;;32.80;88.60;;;;;;5063139;28;20509;-66
2022/09/13 01:18:20;;;;;;;6.72;3.00;;;32.80;89.00;;;;;;5063942;28;20505;-66
2022/09/13 01:21:11;;;;;;;7.97;2.67;;;32.70;88.90;;;;;;5066321;28;20066;-64
2022/09/13 01:24:04;;;;;;;4.22;2.40;;;32.70;89.30;;;;;;5064614;28;20043;-66
2022/09/13 01:27:19;;;;;;;7.25;1.95;;;32.60;89.40;;;;;;5050450;28;20048;-67
2022/09/13 01:30:03;;;;;;;7.13;2.25;;;32.60;89.70;;;;;;5066964;28;20059;-66
2022/09/13 01:32:57;;;;;;;6.18;2.13;;;32.60;90.10;;;;;;5067063;28;20051;-66
2022/09/13 01:35:27;;;;;;;5.85;2.25;;;32.50;90.20;;;;;;5064420;28;20087;-65
2022/09/13 01:38:09;;;;;;;4.45;2.20;;;32.40;90.50;;;;;;5064711;28;20033;-64
2022/09/13 01:40:50;;;;;;;7.13;1.95;;;32.40;90.50;;;;;;5062453;28;20060;-64
2022/09/13 01:43:26;;;;;;;9.35;2.50;;;32.30;90.20;;;;;;5063212;28;20037;-64
2022/09/13 01:46:01;;;;;;;5.32;2.13;;;32.30;90.10;;;;;;5066784;28;20048;-64
2022/09/13 01:48:38;;;;;;;3.65;1.70;;;32.20;90.00;;;;;;5079982;22;20241;-65
2022/09/13 01:51:04;;;;;;;4.10;1.38;;;32.10;90.10;;;;;;5068287;28;20053;-62
2022/09/13 01:53:47;;;;;;;1.88;1.33;;;32.00;88.90;;;;;;5067721;28;20466;-67
2022/09/13 01:56:16;;;;;;;4.82;1.10;;;32.00;88.60;;;;;;5064680;28;20052;-64
2022/09/13 01:59:15;;;;;;;3.95;1.15;;;31.90;88.20;;;;;;5064887;28;20048;-64
2022/09/13 02:01:54;;;;;;;3.00;1.25;;;31.90;88.30;;;;;;5066689;28;20503;-66
2022/09/13 02:04:47;;;;;;;4.60;1.38;;;31.90;89.10;;;;;;5066698;28;20136;-67
2022/09/13 02:07:24;;;;;;;5.65;1.55;;;31.90;89.30;;;;;;5066038;28;20429;-64
2022/09/13 02:09:58;;;;;;;2.70;1.38;;;31.90;88.20;;;;;;5083711;28;20077;-65
2022/09/13 02:12:27;;;;;;;5.15;1.48;;;31.90;87.60;;;;;;5070546;28;20084;-65
2022/09/13 02:15:03;;;;;;;2.92;1.60;;;31.70;89.80;;;;;;5067421;28;20586;-66
2022/09/13 02:17:37;;;;;;;6.43;2.00;;;31.70;90.00;;;;;;5067097;28;20052;-65
2022/09/13 02:20:24;;;;;;;5.95;1.55;;;31.70;90.30;;;;;;5066920;28;20153;-64
2022/09/13 02:22:55;;;;;;;6.57;1.65;;;31.50;90.40;;;;;;5068394;28;20042;-64
2022/09/13 02:25:25;;;;;;;6.57;1.50;;;31.50;90.30;;;;;;5068377;28;20121;-64
2022/09/13 02:27:57;;;;;;;4.80;1.52;;;31.40;90.20;;;;;;5055686;28;20046;-65
2022/09/13 02:30:24;;;;;;;7.10;1.55;;;31.50;90.10;;;;;;5067450;28;20121;-65
2022/09/13 02:33:25;;;;;;;5.57;1.48;;;31.30;90.00;;;;;;5067839;28;20056;-64
2022/09/13 02:36:01;;;;;;;4.93;1.50;;;31.40;90.00;;;;;;4986426;28;20066;-65
2022/09/13 02:38:46;;;;;;;7.47;1.33;;;31.30;90.50;;;;;;4981569;28;20096;-66
2022/09/13 02:41:29;;;;;;;3.33;1.48;;;31.30;91.60;;;;;;4951267;28;20423;-65
2022/09/13 02:44:06;;;;;;;5.07;1.33;;;31.10;92.40;;;;;;4950911;28;20523;-65
2022/09/13 02:46:58;;;;;;;7.13;2.63;;;31.00;91.90;;;;;;4953678;28;20092;-65
2022/09/13 02:49:50;;;;;;;10.02;3.28;;;30.90;93.10;;;;;;4971123;28;20084;-65
2022/09/13 02:52:41;;;;;;;11.10;3.40;;;30.80;94.10;;;;;;4954701;28;20161;-65
2022/09/13 02:55:44;;;;;;;14.25;2.70;;;30.80;94.90;;;;;;4954210;28;20161;-65
2022/09/13 02:58:35;;;;;;;12.10;2.78;;;30.80;94.60;;;;;;4950144;28;21014;-65
2022/09/13 03:01:01;;;;;;;8.93;2.78;;;30.80;94.20;;;;;;4955590;28;20161;-64
2022/09/13 03:03:28;;;;;;;14.60;2.80;;;30.70;93.70;;;;;;4970197;28;20054;-64
2022/09/13 03:05:55;;;;;;;4.38;2.13;;;30.60;92.40;;;;;;4969251;28;20398;-65
2022/09/13 03:08:22;;;;;;;4.25;1.73;;;30.60;91.60;;;;;;4972143;28;20493;-67
2022/09/13 03:11:17;;;;;;;2.63;1.45;;;30.70;90.20;;;;;;4974504;28;20062;-64
2022/09/13 03:14:02;;;;;;;1.60;1.13;;;30.70;88.90;;;;;;5047758;28;20059;-64
2022/09/13 03:16:50;;;;;;;5.20;1.25;;;30.70;87.00;;;;;;5047472;28;20059;-64
2022/09/13 03:19:32;;;;;;;3.03;1.20;;;30.70;86.40;;;;;;5047530;28;20052;-64
2022/09/13 03:22:15;;;;;;;3.20;1.27;;;30.70;86.30;;;;;;5050851;28;20068;-65
2022/09/13 03:25:03;;;;;;;5.55;0.93;;;30.70;86.00;;;;;;5049441;28;20072;-64
2022/09/13 03:27:32;;;;;;;4.75;1.10;;;30.80;86.80;;;;;;5050393;28;20509;-65
2022/09/13 03:30:22;;;;;;;1.83;0.88;;;30.80;88.30;;;;;;5050939;28;20046;-65
2022/09/13 03:32:51;;;;;;;3.45;1.00;;;30.70;88.20;;;;;;5051220;28;20066;-64
2022/09/13 03:35:44;;;;;;;6.32;1.23;;;30.70;88.40;;;;;;5049752;28;20060;-65
2022/09/13 03:38:16;;;;;;;1.70;1.35;;;30.70;88.90;;;;;;5044279;28;20453;-67
2022/09/13 03:40:57;;;;;;;2.20;1.65;;;30.60;89.90;;;;;;5032602;28;20435;-65
2022/09/13 03:43:34;;;;;;;2.30;1.40;;;30.50;91.00;;;;;;5060004;28;20413;-66
2022/09/13 03:46:09;;;;;;;2.00;1.63;;;30.50;91.10;;;;;;5048579;28;20058;-66
2022/09/13 03:48:38;;;;;;;5.15;2.10;;;30.40;91.60;;;;;;5048631;28;20080;-66
2022/09/13 03:51:06;;;;;;;8.70;2.92;;;30.40;91.70;;;;;;5050236;28;20077;-64
2022/09/13 03:53:38;;;;;;;12.60;2.72;;;30.30;92.00;;;;;;5049826;28;20047;-64
2022/09/13 03:56:19;;;;;;;2.47;1.83;;;30.30;92.10;;;;;;5032872;28;20063;-65
2022/09/13 03:58:46;;;;;;;3.67;1.67;;;30.30;92.20;;;;;;5046732;28;20517;-66
2022/09/13 04:01:13;;;;;;;2.97;1.63;;;30.30;92.50;;;;;;5079904;28;20075;-67
2022/09/13 04:03:39;;;;;;;4.03;1.00;;;30.20;92.60;;;;;;5048677;28;20111;-65
2022/09/13 04:06:06;;;;;;;1.45;0.90;;;30.10;91.50;;;;;;5033025;28;20058;-64
2022/09/13 04:08:33;;;;;;;3.35;0.70;;;30.00;91.60;;;;;;5055415;28;20047;-65
2022/09/13 04:11:00;;;;;;;2.50;0.95;;;30.00;91.40;;;;;;5049234;28;20056;-66
2022/09/13 04:13:27;;;;;;;0.98;0.50;;;30.00;91.10;;;;;;5048017;28;20056;-66
2022/09/13 04:15:54;;;;;;;2.30;0.68;;;30.00;90.60;;;;;;5049796;28;20056;-65
2022/09/13 04:18:20;;;;;;;1.20;1.02;;;29.90;90.70;;;;;;5048349;28;20424;-65
2022/09/13 04:20:57;;;;;;;2.17;0.80;;;29.90;90.80;;;;;;5050403;28;20060;-65
2022/09/13 04:23:25;;;;;;;1.88;0.70;;;29.90;91.00;;;;;;5048750;28;20040;-63
2022/09/13 04:25:52;;;;;;;1.75;0.80;;;29.90;91.20;;;;;;5049145;28;20518;-66
2022/09/13 04:28:19;;;;;;;1.55;0.55;;;29.80;91.20;;;;;;5048605;28;20048;-65
2022/09/13 04:30:47;;;;;;;4.68;0.70;;;29.80;91.30;;;;;;5082183;28;20049;-66
2022/09/13 04:33:16;;;;;;;2.70;1.10;;;29.80;98.70;;;;;;5048242;28;20052;-66
2022/09/13 04:35:42;;;;;;;4.30;2.33;;;29.70;91.60;;;;;;5050550;28;20051;-64
2022/09/13 04:38:09;;;;;;;4.05;2.60;;;29.70;91.70;;;;;;5046734;28;20074;-64
2022/09/13 04:40:36;;;;;;;4.25;1.90;;;29.70;91.70;;;;;;5048085;28;20073;-64
2022/09/13 04:43:02;;;;;;;3.78;1.50;;;29.80;91.70;;;;;;5049702;28;20423;-64
2022/09/13 04:45:29;;;;;;;6.82;1.15;;;29.70;91.60;;;;;;5047892;28;20076;-66
2022/09/13 04:47:56;;;;;;;2.42;0.90;;;29.70;91.70;;;;;;5048367;28;20173;-66
2022/09/13 04:50:24;;;;;;;3.10;1.42;;;29.70;91.60;;;;;;5081588;28;20051;-66
2022/09/13 04:52:54;;;;;;;2.60;1.10;;;29.70;91.70;;;;;;5048682;28;20103;-66
2022/09/13 04:55:20;;;;;;;7.32;1.02;;;29.60;91.70;;;;;;5047752;28;20173;-66
2022/09/13 04:57:46;;;;;;;3.70;1.30;;;29.60;91.60;;;;;;5046581;28;20512;-65
2022/09/13 05:00:13;;;;;;;3.45;1.20;;;29.60;91.80;;;;;;5045522;28;20065;-65
2022/09/13 05:02:39;;;;;;;1.67;0.90;;;29.60;91.80;;;;;;5049798;28;20075;-66
2022/09/13 05:05:07;;;;;;;1.17;0.98;;;29.50;91.60;;;;;;5056052;28;20176;-66
2022/09/13 05:07:34;;;;;;;2.70;1.60;;;29.60;91.80;;;;;;5049301;28;20121;-66
2022/09/13 05:10:00;;;;;;;4.45;1.70;;;29.50;91.80;;;;;;5047294;28;20542;-65
2022/09/13 05:12:26;;;;;;;6.63;1.63;;;29.60;91.80;;;;;;5056094;28;20163;-65
2022/09/13 05:14:53;;;;;;;5.68;1.67;;;29.60;91.80;;;;;;5049480;28;20085;-67
2022/09/13 05:17:20;;;;;;;5.03;1.80;;;29.50;91.90;;;;;;5046950;28;20094;-65
2022/09/13 05:19:48;;;;;;;5.32;1.83;;;29.60;91.80;;;;;;5047073;28;20127;-65
2022/09/13 05:22:14;;;;;;;3.72;1.45;;;29.50;91.90;;;;;;5047078;28;20161;-66
2022/09/13 05:24:40;;;;;;;6.30;1.67;;;29.60;92.40;;;;;;5047241;28;20072;-65
2022/09/13 05:27:07;;;;;;;3.38;1.70;;;29.60;92.10;;;;;;5047679;28;20057;-63
2022/09/13 05:29:34;;;;;;;7.70;1.88;;;29.50;92.30;;;;;;5046937;28;20064;-65
2022/09/13 05:32:00;;;;;;;2.80;1.80;;;29.50;92.50;;;;;;5048251;28;20793;-67
2022/09/13 05:34:27;;;;;;;3.67;2.15;;;29.50;92.60;;;;;;5047467;28;20074;-67
2022/09/13 05:36:53;;;;;;;2.53;1.60;;;29.50;93.00;;;;;;5047218;28;20473;-65
2022/09/13 05:39:21;;;;;;;4.15;1.63;;;29.50;92.90;;;;;;5047321;28;20091;-64
2022/09/13 05:41:47;;;;;;;3.85;1.70;;;29.50;93.20;;;;;;5048713;28;20168;-66
2022/09/13 05:44:14;;;;;;;3.65;1.70;;;29.60;93.10;;;;;;5048129;28;20062;-66
2022/09/13 05:46:42;;;;;;;7.93;1.85;;;29.60;93.20;;;;;;5047547;28;20057;-66
2022/09/13 05:49:08;;;;;;;3.55;1.85;;;29.60;93.20;;;;;;5047002;28;20067;-67
2022/09/13 05:51:35;;;;;;;3.83;2.08;;;29.60;93.10;;;;;;5047409;28;20065;-66
2022/09/13 05:54:01;;;;;;;2.45;1.70;;;29.60;93.20;;;;;;5047574;28;20059;-66
2022/09/13 05:56:30;;;;;;;6.50;3.20;;;29.60;93.50;;;;;;5047784;28;20100;-66
2022/09/13 05:58:57;;;;;;;5.30;2.30;;;29.70;93.50;;;;;;5030847;28;20071;-65
2022/09/13 06:01:28;;;;;;;9.27;3.08;;;29.60;93.50;;;;;;5051021;28;20078;-66
2022/09/13 06:03:56;;;;;;;6.30;2.83;;;29.60;93.40;;;;;;5047361;28;20526;-66
2022/09/13 06:06:24;;;;;;;6.72;2.25;;;29.60;93.60;;;;;;5049782;28;20511;-66
2022/09/13 06:08:57;;;;;;;4.82;2.20;;;29.60;93.80;;;;;;5051255;28;20060;-66
2022/09/13 06:11:27;;;;;;;5.97;2.05;;;29.60;93.80;;;;;;5047038;28;20067;-66
2022/09/13 06:13:54;;;;;;;4.00;1.98;;;29.60;93.80;;;;;;5030759;28;20065;-66
2022/09/13 06:16:20;;;;;;;7.15;1.75;;;29.60;93.80;;;;;;5048351;28;20128;-68
2022/09/13 06:18:47;;;;;;;5.10;1.90;;;29.70;93.80;;;;;;5079616;28;20157;-66
2022/09/13 06:21:21;;;;;;;3.72;1.73;;;29.70;93.80;;;;;;5049261;28;20448;-67
2022/09/13 06:23:50;;;;;;;3.38;1.73;;;29.70;93.50;;;;;;5051118;28;20055;-66
2022/09/13 06:26:19;;;;;;;2.63;1.55;;;29.60;93.20;;;;;;5052181;28;20106;-67
2022/09/13 06:28:54;;;;;;;6.03;3.20;;;29.60;93.50;;;;;;5050470;28;20060;-66
2022/09/13 06:31:23;;;;;;;6.88;3.90;;;29.70;93.80;;;;;;5051985;28;20086;-65
2022/09/13 06:33:56;;;;;;;4.47;2.78;;;29.60;93.30;;;;;;5052057;28;20049;-66
2022/09/13 06:36:23;;;;;;;6.97;2.40;;;29.60;92.70;;;;;;5052529;28;20065;-65
2022/09/13 06:38:49;;;;;;;3.92;2.17;;;29.70;92.40;;;;;;5050607;28;20539;-65
2022/09/13 06:41:22;;;;;;;4.68;2.15;;;29.70;92.30;;;;;;5051067;28;20169;-66
2022/09/13 06:43:53;;;;;;;2.40;1.55;;;29.70;92.20;;;;;;5051248;28;20149;-66
2022/09/13 06:46:20;;;;;;;4.15;2.40;;;29.70;92.10;;;;;;5051113;28;20425;-68
2022/09/13 06:48:47;;;;;;;3.00;1.73;;;29.80;92.20;;;;;;5049786;28;20108;-67
2022/09/13 06:51:16;;;;;;;4.88;1.63;;;29.70;92.20;;;;;;5051196;28;20064;-67
2022/09/13 06:53:44;;;;;;;3.05;1.73;;;29.70;92.20;;;;;;5051823;28;20054;-66
2022/09/13 06:56:13;;;;;;;3.83;1.60;;;29.80;92.00;;;;;;5051806;28;20061;-67
2022/09/13 06:58:42;;;;;;;2.72;1.40;;;29.80;91.80;;;;;;5050003;28;20064;-66
2022/09/13 07:01:17;;;;;;;6.00;1.50;;;29.80;91.90;;;;;;5050237;28;20078;-66
2022/09/13 07:03:53;;;;;;;9.07;2.10;;;29.80;91.80;;;;;;5049191;28;20053;-66
2022/09/13 07:06:26;;;;;;;5.78;2.83;;;29.70;91.90;;;;;;5052438;28;20102;-66
2022/09/13 07:08:53;;;;;;;5.47;2.75;;;29.70;92.00;;;;;;5054014;28;20056;-66
2022/09/13 07:11:22;;;;;;;4.32;2.28;;;29.70;91.90;;;;;;5050489;28;20062;-66
2022/09/13 07:13:53;;;;;;;5.30;1.90;;;29.70;92.10;;;;;;5052525;28;20051;-66
2022/09/13 07:16:23;;;;;;;52.80;4.63;;;29.70;92.50;;;;;;5050208;28;20069;-65
2022/09/13 07:18:55;;;;;;;24.95;2.85;;;29.70;93.00;;;;;;5050155;28;20107;-68
2022/09/13 07:21:49;;;;;;;6.70;1.60;;;29.70;93.50;;;;;;5050154;28;20167;-65
2022/09/13 07:24:17;;;;;;;6.82;1.70;;;29.60;93.40;;;;;;5049963;28;20129;-64
2022/09/13 07:26:44;;;;;;;6.97;1.77;;;29.50;93.60;;;;;;5049310;28;20540;-65
2022/09/13 07:29:14;;;;;;;3.42;1.55;;;29.50;93.50;;;;;;5050122;28;20057;-63
2022/09/13 07:31:43;;;;;;;2.67;1.63;;;29.60;93.50;;;;;;5049829;28;20144;-62
2022/09/13 07:34:21;;;;;;;2.47;1.30;;;29.50;93.30;;;;;;5082367;28;20063;-64
2022/09/13 07:36:48;;;;;;;5.32;1.40;;;29.60;93.40;;;;;;5051905;28;20150;-62
2022/09/13 07:39:16;;;;;;;6.05;1.40;;;29.60;94.00;;;;;;5050724;28;20433;-67
2022/09/13 07:41:43;;;;;;;3.05;1.52;;;29.50;93.50;;;;;;5048981;28;20068;-65
2022/09/13 07:44:11;;;;;;;4.03;1.50;;;29.50;93.80;;;;;;5049063;28;20094;-65
2022/09/13 07:46:42;;;;;;;3.20;1.60;;;29.50;94.00;;;;;;5049465;28;20044;-65
2022/09/13 07:49:10;;;;;;;3.25;1.42;;;29.50;93.70;;;;;;5049070;28;20051;-65
2022/09/13 07:51:39;;;;;;;6.22;1.50;;;29.50;94.00;;;;;;5049354;28;20435;-63
2022/09/13 07:54:11;;;;;;;6.65;2.10;;;29.40;93.90;;;;;;5050574;28;20192;-64
2022/09/13 07:56:40;;;;;;;9.50;2.78;;;29.40;94.10;;;;;;5050435;28;20056;-65
2022/09/13 07:59:14;;;;;;;9.07;2.65;;;29.30;94.20;;;;;;5049579;28;20066;-65
2022/09/13 08:01:49;;;;;;;4.15;2.67;;;29.30;94.40;;;;;;5049715;28;20080;-65
2022/09/13 08:04:18;;;;;;;6.80;2.40;;;29.20;94.70;;;;;;5046911;28;20064;-66
2022/09/13 08:06:45;;;;;;;6.07;2.40;;;29.20;94.80;;;;;;5050732;28;20063;-65
2022/09/13 08:12:34;;;;;;;6.30;2.35;;;29.10;95.50;;;;;;5049599;28;20061;-66
2022/09/13 08:15:00;;;;;;;5.45;2.05;;;29.00;95.40;;;;;;5049479;28;20059;-65
2022/09/13 08:17:27;;;;;;;5.55;1.90;;;29.00;95.40;;;;;;5048699;28;20060;-65
2022/09/13 08:19:53;;;;;;;4.20;1.63;;;28.90;95.50;;;;;;5049278;28;20134;-65
2022/09/13 08:22:19;;;;;;;7.15;2.10;;;28.90;95.40;;;;;;5049944;28;20083;-65
2022/09/13 08:24:46;;;;;;;8.23;2.05;;;28.90;95.90;;;;;;5049608;28;20521;-64
2022/09/13 08:27:12;;;;;;;6.38;1.73;;;28.90;96.20;;;;;;5053749;28;20066;-65
2022/09/13 08:29:38;;;;;;;11.10;2.55;;;28.90;96.50;;;;;;5049569;28;20811;-65
2022/09/13 08:32:05;;;;;;;8.73;2.55;;;28.90;96.30;;;;;;5049185;28;20511;-65
2022/09/13 08:34:31;;;;;;;6.05;2.40;;;28.90;96.10;;;;;;5049944;28;20063;-65
2022/09/13 08:36:57;;;;;;;7.20;2.20;;;28.90;96.30;;;;;;5050250;28;20056;-65
2022/09/13 08:39:24;;;;;;;8.02;2.40;;;28.80;96.50;;;;;;5048003;28;20081;-65
2022/09/13 08:42:10;;;;;;;9.73;2.92;;;28.90;96.70;;;;;;5048037;28;20469;-65
2022/09/13 08:44:46;;;;;;;14.02;3.10;;;28.90;96.70;;;;;;5047152;28;20431;-65
2022/09/13 08:47:31;;;;;;;9.95;3.65;;;28.80;96.60;;;;;;5048451;28;20094;-66
2022/09/13 08:50:10;;;;;;;11.48;4.00;;;28.80;97.00;;;;;;5048131;28;20056;-66
2022/09/13 08:52:48;;;;;;;13.73;4.18;;;28.80;97.30;;;;;;5048340;28;20073;-65
2022/09/13 08:55:44;;;;;;;15.02;3.90;;;28.80;97.60;;;;;;5048439;28;20155;-65
2022/09/13 08:58:30;;;;;;;12.35;5.07;;;28.80;97.80;;;;;;5050976;28;20065;-66
2022/09/13 09:01:11;;;;;;;14.43;4.38;;;28.80;98.10;;;;;;5048070;28;20088;-65
2022/09/13 09:04:00;;;;;;;15.73;4.40;;;28.70;98.20;;;;;;5046547;28;20083;-65
2022/09/13 09:06:27;;;;;;;16.10;4.47;;;28.70;98.60;;;;;;5044566;28;20070;-66
2022/09/13 09:09:05;;;;;;;21.73;5.32;;;28.70;98.70;;;;;;5046533;28;20078;-64
2022/09/13 09:11:41;;;;;;;14.38;4.72;;;28.70;99.00;;;;;;5044388;28;20075;-66
2022/09/13 09:14:19;;;;;;;14.77;5.30;;;28.60;99.10;;;;;;5045454;28;20108;-66
2022/09/13 09:16:53;;;;;;;23.05;7.45;;;28.60;99.30;;;;;;5029448;28;20130;-66
2022/09/13 09:19:33;;;;;;;25.65;8.13;;;28.60;99.50;;;;;;5030301;28;20176;-65
2022/09/13 09:22:03;;;;;;;25.33;9.27;;;28.50;99.70;;;;;;5030254;28;20468;-64
2022/09/13 09:24:35;;;;;;;28.15;10.60;;;28.50;99.90;;;;;;5030690;28;21319;-66
2022/09/13 09:27:10;;;;;;;26.40;10.05;;;28.50;99.90;;;;;;5031994;28;20271;-66
2022/09/13 09:29:39;;;;;;;27.73;11.73;;;28.50;99.90;;;;;;5030810;28;20065;-65
2022/09/13 09:32:29;;;;;;;32.03;12.85;;;28.50;99.90;;;;;;5029812;28;20139;-65
2022/09/13 09:35:19;;;;;;;35.75;12.18;;;28.50;99.90;;;;;;5046465;28;20076;-66
2022/09/13 09:38:13;;;;;;;32.53;12.00;;;28.50;99.90;;;;;;5038367;28;20109;-67
2022/09/13 09:40:40;;;;;;;28.00;11.48;;;28.50;99.90;;;;;;5048255;28;20077;-64
2022/09/13 09:43:21;;;;;;;29.85;12.07;;;28.50;99.90;;;;;;5048915;28;20068;-65
2022/09/13 09:45:50;;;;;;;30.83;12.50;;;28.50;99.90;;;;;;5047640;28;20543;-65
2022/09/13 09:48:23;;;;;;;34.10;13.55;;;28.50;99.90;;;;;;5047336;28;20472;-66
2022/09/13 09:50:57;;;;;;;29.83;11.93;;;28.50;99.90;;;;;;5049088;28;20069;-65
2022/09/13 09:53:52;;;;;;;33.97;13.40;;;28.50;99.90;;;;;;5045675;28;20076;-65
2022/09/13 09:56:27;;;;;;;30.58;13.52;;;28.50;99.90;;;;;;5044558;28;20072;-64
2022/09/13 09:58:54;;;;;;;31.50;14.05;;;28.50;99.90;;;;;;5048826;28;20466;-65
2022/09/13 10:01:36;;;;;;;45.33;13.55;;;28.50;99.90;;;;;;5048054;28;20069;-66
2022/09/13 10:04:09;;;;;;;33.50;14.75;;;28.50;99.90;;;;;;5045692;28;20485;-66
2022/09/13 10:06:40;;;;;;;34.97;14.45;;;28.50;99.90;;;;;;5049471;28;20418;-66
2022/09/13 10:09:13;;;;;;;40.55;13.77;;;28.50;99.90;;;;;;5047643;28;20056;-67
2022/09/13 10:11:48;;;;;;;36.65;13.90;;;28.50;99.90;;;;;;5052427;28;20523;-66
2022/09/13 10:14:33;;;;;;;30.52;13.88;;;28.50;99.90;;;;;;5045904;28;20070;-65
2022/09/13 10:17:20;;;;;;;38.22;13.77;;;28.50;99.90;;;;;;5046890;28;20066;-65
2022/09/13 10:20:00;;;;;;;29.42;14.60;;;28.50;99.90;;;;;;5047173;28;20164;-66
2022/09/13 10:22:29;;;;;;;33.40;14.43;;;28.50;99.90;;;;;;5046694;28;20170;-64
2022/09/13 10:25:23;;;;;;;34.95;15.27;;;28.50;99.90;;;;;;5048110;28;20532;-68
2022/09/13 10:27:59;;;;;;;37.38;15.80;;;28.50;99.90;;;;;;5048014;28;20068;-66
2022/09/13 10:31:02;;;;;;;39.63;16.92;;;28.50;99.90;;;;;;5047110;28;20077;-66
2022/09/13 10:33:33;;;;;;;33.58;16.10;;;28.50;99.90;;;;;;5046508;28;20631;-66
2022/09/13 10:36:15;;;;;;;34.50;15.75;;;28.50;99.90;;;;;;5046209;28;20061;-67
2022/09/13 10:39:04;;;;;;;29.90;14.68;;;28.50;99.90;;;;;;5046956;28;20075;-65
2022/09/13 10:41:34;;;;;;;32.85;14.93;;;28.50;99.90;;;;;;5046780;28;20076;-65
2022/09/13 10:44:06;;;;;;;28.83;14.77;;;28.50;99.90;;;;;;5046300;28;20063;-66
2022/09/13 10:46:38;;;;;;;30.27;14.10;;;28.50;99.90;;;;;;5048005;28;20058;-67
2022/09/13 10:49:05;;;;;;;31.88;13.55;;;28.50;99.90;;;;;;5046659;28;20074;-65
2022/09/13 10:51:35;;;;;;;26.60;12.70;;;28.50;99.90;;;;;;5046106;28;20586;-66
2022/09/13 10:54:11;;;;;;;37.92;13.70;;;28.60;99.90;;;;;;5045591;28;20059;-66
2022/09/13 10:56:37;;;;;;;40.08;16.80;;;28.50;99.90;;;;;;5047078;28;20056;-66
2022/09/13 10:59:20;;;;;;;33.85;18.10;;;28.50;99.90;;;;;;5048274;28;20075;-67
2022/09/13 11:01:50;;;;;;;33.15;17.67;;;28.40;99.90;;;;;;5045964;28;20089;-66
2022/09/13 11:04:43;;;;;;;42.40;21.15;;;28.40;99.90;;;;;;5046491;28;20449;-65
2022/09/13 11:07:50;;;;;;;36.15;23.20;;;28.40;99.90;;;;;;5041754;28;20068;-65
2022/09/13 11:10:28;;;;;;;43.88;22.63;;;28.50;99.90;;;;;;5036325;28;20082;-65
2022/09/13 11:13:03;;;;;;;49.05;24.25;;;28.50;99.90;;;;;;5049491;28;20105;-65
2022/09/13 11:15:36;;;;;;;49.47;28.00;;;28.50;99.90;;;;;;5049584;28;20057;-65
2022/09/13 11:18:02;;;;;;;63.85;29.23;;;28.50;99.90;;;;;;5050869;28;20526;-65
2022/09/13 11:21:03;;;;;;;65.28;28.45;;;28.50;99.90;;;;;;5049863;28;20078;-64
2022/09/13 11:23:45;;;;;;;54.08;26.58;;;28.50;99.90;;;;;;5050350;28;20065;-65
2022/09/13 11:26:33;;;;;;;56.25;26.67;;;28.40;99.90;;;;;;5051371;28;20088;-65
2022/09/13 11:29:30;;;;;;;49.13;27.60;;;28.50;99.90;;;;;;5049733;28;20066;-65
2022/09/13 11:32:19;;;;;;;49.15;26.50;;;28.50;99.90;;;;;;5049565;28;20442;-66
2022/09/13 11:35:26;;;;;;;54.65;25.90;;;28.50;99.90;;;;;;5049685;28;20068;-65
2022/09/13 11:38:14;;;;;;;50.33;25.60;;;28.40;99.90;;;;;;5049630;28;20419;-65
2022/09/13 11:40:43;;;;;;;41.85;26.10;;;28.30;99.90;;;;;;5051219;28;20400;-64
2022/09/13 11:43:25;;;;;;;46.08;25.50;;;28.30;99.90;;;;;;5050079;28;20405;-64
2022/09/13 11:45:54;;;;;;;45.22;26.60;;;28.30;99.90;;;;;;5049216;28;20636;-65
2022/09/13 11:48:47;;;;;;;38.83;27.00;;;28.30;99.90;;;;;;5050755;28;20111;-66
2022/09/13 11:51:49;;;;;;;40.85;23.75;;;28.30;99.90;;;;;;5048897;28;20073;-65
2022/09/13 11:54:25;;;;;;;38.33;23.63;;;28.20;99.90;;;;;;5049811;28;20447;-67
2022/09/13 11:57:03;;;;;;;31.58;20.35;;;28.20;99.90;;;;;;5050135;28;20421;-65
2022/09/13 11:59:40;;;;;;;24.88;19.13;;;28.30;99.90;;;;;;5050333;28;20129;-64
2022/09/13 12:02:31;;;;;;;30.13;19.25;;;28.30;99.90;;;;;;5049022;28;20077;-65
2022/09/13 12:05:20;;;;;;;48.85;21.33;;;28.30;99.90;;;;;;5048304;28;20077;-65
2022/09/13 12:07:52;;;;;;;37.25;19.77;;;28.40;99.90;;;;;;5054624;28;20421;-67
2022/09/13 12:10:24;;;;;;;40.63;22.08;;;28.40;99.90;;;;;;5047823;28;20059;-66
2022/09/13 12:12:52;;;;;;;45.75;24.70;;;28.40;99.90;;;;;;5048591;28;20183;-66
2022/09/13 12:15:22;;;;;;;40.03;23.33;;;28.30;99.90;;;;;;5048535;28;20069;-66
2022/09/13 12:17:54;;;;;;;38.88;24.23;;;28.40;99.90;;;;;;5047931;28;20538;-65
2022/09/13 12:20:29;;;;;;;37.85;24.88;;;28.40;99.90;;;;;;5049011;28;20066;-65
2022/09/13 12:23:00;;;;;;;35.27;23.80;;;28.30;99.90;;;;;;5050018;28;20058;-65
2022/09/13 12:26:01;;;;;;;31.45;23.05;;;28.20;99.90;;;;;;5049425;28;20106;-66
2022/09/13 12:28:36;;;;;;;39.80;22.55;;;28.20;99.90;;;;;;5015681;28;20073;-66
2022/09/13 12:31:12;;;;;;;31.13;22.08;;;28.20;99.90;;;;;;5048197;28;20155;-65
2022/09/13 12:33:40;;;;;;;31.25;20.63;;;28.30;99.90;;;;;;5049877;28;20072;-66
2022/09/13 12:36:20;;;;;;;27.80;17.90;;;28.20;99.90;;;;;;5049593;28;20103;-65
2022/09/13 12:39:05;;;;;;;26.48;18.35;;;28.20;99.90;;;;;;5048848;28;20087;-64
2022/09/13 12:41:59;;;;;;;27.13;16.83;;;28.20;99.90;;;;;;5047880;28;20149;-65
2022/09/13 12:44:50;;;;;;;26.52;15.68;;;28.20;99.90;;;;;;5047591;28;20078;-65
2022/09/13 12:47:46;;;;;;;23.65;15.40;;;28.20;99.90;;;;;;5048447;28;20105;-66
2022/09/13 12:50:50;;;;;;;21.35;13.30;;;28.20;99.90;;;;;;5048712;28;20090;-66
2022/09/13 12:53:51;;;;;;;24.40;13.32;;;28.10;99.90;;;;;;5042360;28;20163;-64
2022/09/13 12:56:17;;;;;;;29.02;12.48;;;28.10;99.90;;;;;;5047910;28;20078;-65
2022/09/13 12:59:11;;;;;;;32.90;14.05;;;28.10;99.90;;;;;;5051476;28;20076;-64
2022/09/13 13:01:44;;;;;;;26.10;11.80;;;28.10;99.90;;;;;;5047794;28;20443;-65
2022/09/13 13:04:16;;;;;;;24.92;11.95;;;28.10;99.90;;;;;;5048373;28;20552;-65
2022/09/13 13:07:02;;;;;;;24.17;12.20;;;28.10;99.90;;;;;;5054015;28;20522;-65
2022/09/13 13:09:41;;;;;;;25.70;12.77;;;28.10;99.90;;;;;;5042793;28;20555;-66
2022/09/13 13:12:32;;;;;;;23.77;13.48;;;28.10;99.90;;;;;;5047595;28;20095;-65
2022/09/13 13:15:00;;;;;;;20.85;11.55;;;28.10;99.90;;;;;;5046709;28;20093;-64
2022/09/13 13:17:50;;;;;;;24.35;12.32;;;28.10;99.90;;;;;;5053636;28;20104;-65
2022/09/13 13:21:08;;;;;;;22.70;11.73;;;28.10;99.90;;;;;;5047833;28;20549;-64
2022/09/13 13:23:35;;;;;;;24.63;12.30;;;28.10;99.90;;;;;;5046424;28;20173;-64